createdAt,value
2023-05-01T00:02:17.896Z,82.02
2023-05-01T00:04:47.153Z,82.97
2023-05-01T00:07:16.984Z,83.57
2023-05-01T00:09:46.369Z,84.26
2023-05-01T00:12:15.063Z,85.23
2023-05-01T00:14:44.306Z,85.19
2023-05-01T00:17:13.253Z,86.72
2023-05-01T00:19:41.943Z,86.90
2023-05-01T00:22:10.834Z,87.09
2023-05-01T00:24:39.606Z,86.69
2023-05-01T00:27:09.215Z,86.78
2023-05-01T00:29:38.537Z,86.58
2023-05-01T00:32:07.954Z,86.77
2023-05-01T00:34:36.504Z,86.52
2023-05-01T00:37:05.505Z,86.77
2023-05-01T00:39:35.138Z,87.00
2023-05-01T00:42:04.311Z,87.24
2023-05-01T00:44:33.094Z,86.98
2023-05-01T00:47:02.829Z,86.72
2023-05-01T00:49:31.804Z,86.40
2023-05-01T00:52:00.486Z,87.01
2023-05-01T00:54:29.591Z,86.99
2023-05-01T00:56:59.282Z,87.63
2023-05-01T00:59:28.589Z,87.66
2023-05-01T01:01:57.268Z,87.62
2023-05-01T01:04:29.274Z,87.87
2023-05-01T01:07:26.185Z,88.01
2023-05-01T01:09:57.890Z,87.99
2023-05-01T01:12:39.223Z,87.79
2023-05-01T01:15:27.575Z,87.68
2023-05-01T01:18:09.965Z,88.10
2023-05-01T01:21:11.455Z,88.17
2023-05-01T01:24:02.330Z,88.38
2023-05-01T01:26:52.113Z,88.39
2023-05-01T01:29:48.662Z,89.06
2023-05-01T01:32:42.567Z,89.47
2023-05-01T01:35:21.773Z,89.54
2023-05-01T01:37:58.558Z,89.62
2023-05-01T01:40:34.691Z,90.01
2023-05-01T01:43:06.245Z,90.53
2023-05-01T01:45:44.162Z,91.04
2023-05-01T01:48:18.031Z,91.34
2023-05-01T01:50:47.877Z,91.79
2023-05-01T01:53:18.789Z,92.45
2023-05-01T01:55:48.719Z,92.71
2023-05-01T01:58:17.925Z,92.83
2023-05-01T02:00:48.144Z,92.84
2023-05-01T02:03:18.316Z,93.21
2023-05-01T02:05:47.671Z,93.35
2023-05-01T02:08:17.694Z,93.51
2023-05-01T02:10:48.223Z,93.87
2023-05-01T02:13:17.924Z,93.43
2023-05-01T02:15:47.548Z,93.32
2023-05-01T02:18:16.807Z,93.44
2023-05-01T02:20:45.926Z,93.03
2023-05-01T02:23:15.425Z,93.33
2023-05-01T02:25:45.470Z,93.83
2023-05-01T02:28:16.496Z,93.57
2023-05-01T02:30:47.608Z,93.43
2023-05-01T02:33:16.744Z,93.43
2023-05-01T02:35:48.401Z,93.85
2023-05-01T02:38:18.105Z,94.07
2023-05-01T02:40:51.237Z,94.44
2023-05-01T02:43:21.928Z,95.08
2023-05-01T02:45:51.998Z,95.34
2023-05-01T02:48:24.358Z,95.18
2023-05-01T02:50:54.403Z,95.08
2023-05-01T02:53:23.325Z,95.16
2023-05-01T02:55:55.105Z,95.59
2023-05-01T02:58:24.275Z,95.31
2023-05-01T03:00:52.993Z,95.60
2023-05-01T03:03:23.142Z,95.90
2023-05-01T03:05:52.673Z,96.25
2023-05-01T03:08:21.354Z,96.09
2023-05-01T03:10:51.625Z,95.81
2023-05-01T03:13:20.488Z,96.08
2023-05-01T03:15:49.994Z,96.85
2023-05-01T03:18:18.903Z,96.76
2023-05-01T03:20:57.370Z,96.39
2023-05-01T03:23:26.681Z,96.54
2023-05-01T03:25:55.266Z,96.81
2023-05-01T03:28:24.463Z,97.26
2023-05-01T03:30:53.977Z,97.34
2023-05-01T03:33:23.255Z,97.48
2023-05-01T03:36:01.126Z,97.76
2023-05-01T03:38:31.084Z,97.62
2023-05-01T03:41:11.971Z,98.09
2023-05-01T03:43:46.978Z,98.12
2023-05-01T03:46:33.433Z,96.87
2023-05-01T03:49:02.574Z,96.78
2023-05-01T03:51:33.408Z,97.26
2023-05-01T03:54:02.341Z,97.84
2023-05-01T03:56:37.028Z,98.46
2023-05-01T03:59:07.064Z,99.15
2023-05-01T04:01:35.964Z,99.48
2023-05-01T04:04:05.153Z,99.84
2023-05-01T04:06:34.567Z,99.82
2023-05-01T04:09:03.938Z,99.86
2023-05-01T04:11:32.748Z,99.77
2023-05-01T04:14:01.926Z,99.78
2023-05-01T04:16:31.157Z,99.45
2023-05-01T04:19:01.367Z,99.77
2023-05-01T04:21:32.198Z,100.00
2023-05-01T04:24:01.175Z,99.68
2023-05-01T04:26:31.406Z,99.33
2023-05-01T04:29:02.710Z,98.46
2023-05-01T04:31:31.892Z,98.06
2023-05-01T04:34:00.728Z,97.95
2023-05-01T04:36:30.150Z,97.29
2023-05-01T04:38:58.814Z,96.81
2023-05-01T04:41:29.180Z,97.08
2023-05-01T04:43:57.849Z,96.67
2023-05-01T04:46:26.838Z,96.11
2023-05-01T04:48:55.825Z,95.75
2023-05-01T04:51:24.505Z,95.32
2023-05-01T04:53:54.619Z,94.62
2023-05-01T04:56:26.193Z,94.01
2023-05-01T04:58:57.740Z,93.12
2023-05-01T05:01:27.982Z,92.28
2023-05-01T05:03:57.313Z,91.77
2023-05-01T05:06:26.700Z,91.64
2023-05-01T05:08:57.513Z,90.96
2023-05-01T05:11:26.914Z,90.19
2023-05-01T05:14:12.900Z,89.35
2023-05-01T05:16:42.205Z,88.80
2023-05-01T05:19:12.297Z,88.15
2023-05-01T05:21:43.045Z,87.80
2023-05-01T05:24:12.551Z,87.51
2023-05-01T05:26:41.965Z,87.28
2023-05-01T05:29:11.147Z,86.95
2023-05-01T05:31:40.099Z,86.60
2023-05-01T05:34:09.224Z,86.31
2023-05-01T05:36:38.422Z,85.89
2023-05-01T05:39:07.529Z,85.40
2023-05-01T05:41:37.147Z,85.14
2023-05-01T05:44:06.335Z,84.88
2023-05-01T05:46:35.416Z,84.47
2023-05-01T05:49:04.221Z,83.51
2023-05-01T05:51:33.527Z,83.32
2023-05-01T05:54:03.220Z,82.39
2023-05-01T05:56:32.523Z,81.39
2023-05-01T05:59:04.283Z,80.71
2023-05-01T06:01:33.583Z,79.74
2023-05-01T06:04:02.894Z,79.30
2023-05-01T06:06:32.768Z,78.57
2023-05-01T06:09:02.984Z,78.11
2023-05-01T06:11:32.827Z,76.89
2023-05-01T06:14:04.058Z,76.17
2023-05-01T06:16:34.583Z,75.12
2023-05-01T06:19:04.830Z,74.03
2023-05-01T06:21:36.395Z,73.59
2023-05-01T06:24:06.563Z,72.53
2023-05-01T06:26:44.314Z,71.15
2023-05-01T06:29:13.410Z,69.84
2023-05-01T06:31:42.775Z,69.59
2023-05-01T06:34:12.224Z,69.76
2023-05-01T06:36:59.616Z,69.90
2023-05-01T06:39:28.801Z,68.97
2023-05-01T06:41:57.913Z,67.85
2023-05-01T06:44:36.649Z,65.66
2023-05-01T06:47:06.030Z,65.98
2023-05-01T06:49:34.822Z,66.64
2023-05-01T06:52:04.438Z,65.54
2023-05-01T06:54:33.125Z,65.26
2023-05-01T06:57:02.100Z,64.30
2023-05-01T06:59:32.020Z,64.36
2023-05-01T07:02:01.149Z,64.58
2023-05-01T07:04:29.822Z,64.20
2023-05-01T07:06:58.580Z,62.83
2023-05-01T07:09:27.574Z,60.67
2023-05-01T07:11:58.960Z,61.93
2023-05-01T07:14:28.227Z,61.53
2023-05-01T07:16:57.441Z,61.13
2023-05-01T07:19:26.626Z,60.92
2023-05-01T07:21:55.727Z,60.46
2023-05-01T07:24:24.507Z,60.07
2023-05-01T07:26:53.306Z,59.78
2023-05-01T07:29:22.186Z,59.99
2023-05-01T07:31:51.020Z,58.75
2023-05-01T07:34:20.065Z,57.48
2023-05-01T07:36:48.966Z,57.08
2023-05-01T07:39:18.529Z,57.83
2023-05-01T07:41:48.085Z,56.56
2023-05-01T07:44:17.291Z,57.66
2023-05-01T07:46:46.066Z,55.76
2023-05-01T07:49:14.937Z,55.98
2023-05-01T07:51:45.327Z,55.25
2023-05-01T07:54:16.603Z,55.03
2023-05-01T07:56:46.354Z,54.76
2023-05-01T07:59:16.746Z,53.78
2023-05-01T08:01:52.003Z,53.77
2023-05-01T08:04:28.998Z,53.96
2023-05-01T08:06:58.994Z,52.53
2023-05-01T08:09:29.101Z,51.14
2023-05-01T08:11:58.103Z,51.79
2023-05-01T08:14:26.884Z,53.63
2023-05-01T08:16:56.295Z,53.52
2023-05-01T08:19:25.802Z,50.71
2023-05-01T08:21:55.972Z,50.48
2023-05-01T08:24:24.889Z,49.85
2023-05-01T08:26:53.964Z,50.72
2023-05-01T08:29:23.412Z,51.91
2023-05-01T08:31:53.067Z,52.60
2023-05-01T08:34:23.170Z,52.25
2023-05-01T08:36:52.437Z,52.07
2023-05-01T08:39:22.162Z,52.94
2023-05-01T08:41:51.647Z,52.72
2023-05-01T08:44:26.035Z,53.00
2023-05-01T08:47:03.319Z,52.86
2023-05-01T08:49:35.147Z,51.99
2023-05-01T08:52:05.107Z,52.34
2023-05-01T08:54:34.271Z,51.57
2023-05-01T08:57:08.904Z,51.62
2023-05-01T08:59:40.086Z,51.84
2023-05-01T09:02:10.390Z,52.34
2023-05-01T09:04:41.353Z,52.15
2023-05-01T09:07:13.434Z,51.53
2023-05-01T09:09:42.214Z,51.57
2023-05-01T09:12:26.651Z,51.52
2023-05-01T09:14:56.684Z,51.38
2023-05-01T09:17:26.000Z,52.34
2023-05-01T09:19:54.831Z,51.64
2023-05-01T09:22:24.276Z,48.68
2023-05-01T09:24:52.968Z,49.34
2023-05-01T09:27:21.764Z,48.80
2023-05-01T09:29:50.497Z,49.86
2023-05-01T09:32:26.276Z,48.38
2023-05-01T09:34:56.337Z,49.00
2023-05-01T09:37:27.989Z,49.04
2023-05-01T09:40:02.801Z,48.53
2023-05-01T09:42:35.584Z,48.64
2023-05-01T09:45:13.766Z,48.29
2023-05-01T09:47:44.933Z,49.63
2023-05-01T09:50:33.916Z,48.79
2023-05-01T09:53:05.127Z,47.70
2023-05-01T09:55:34.742Z,46.49
2023-05-01T09:58:04.126Z,47.20
2023-05-01T10:00:33.867Z,46.57
2023-05-01T10:03:14.894Z,47.26
2023-05-01T10:05:44.875Z,47.54
2023-05-01T10:08:16.997Z,47.51
2023-05-01T10:11:00.966Z,48.84
2023-05-01T10:13:30.627Z,48.05
2023-05-01T10:16:01.968Z,45.85
2023-05-01T10:18:31.308Z,45.96
2023-05-01T10:21:00.110Z,47.16
2023-05-01T10:23:29.807Z,48.34
2023-05-01T10:26:00.847Z,47.04
2023-05-01T10:28:31.186Z,46.95
2023-05-01T10:30:59.896Z,46.78
2023-05-01T10:33:29.028Z,47.48
2023-05-01T10:36:00.209Z,47.63
2023-05-01T10:38:37.008Z,46.74
2023-05-01T10:41:07.098Z,45.06
2023-05-01T10:43:35.788Z,44.55
2023-05-01T10:46:10.371Z,45.33
2023-05-01T10:48:45.351Z,46.01
2023-05-01T10:51:17.671Z,46.24
2023-05-01T10:53:47.842Z,45.75
2023-05-01T10:56:25.724Z,45.07
2023-05-01T10:58:56.353Z,44.27
2023-05-01T11:01:48.281Z,45.73
2023-05-01T11:04:20.034Z,43.39
2023-05-01T11:07:08.832Z,44.83
2023-05-01T11:09:46.504Z,46.67
2023-05-01T11:12:16.951Z,45.74
2023-05-01T11:14:55.122Z,45.82
2023-05-01T11:17:42.667Z,43.54
2023-05-01T11:20:12.261Z,43.14
2023-05-01T11:22:46.724Z,44.17
2023-05-01T11:25:23.632Z,44.00
2023-05-01T11:27:55.320Z,42.15
2023-05-01T11:30:24.534Z,42.55
2023-05-01T11:32:53.755Z,43.56
2023-05-01T11:35:27.615Z,43.99
2023-05-01T11:37:57.665Z,41.81
2023-05-01T11:40:31.724Z,41.86
2023-05-01T11:43:05.290Z,41.93
2023-05-01T11:45:39.201Z,42.53
2023-05-01T11:48:16.396Z,44.76
2023-05-01T11:50:45.137Z,41.92
2023-05-01T11:53:18.987Z,41.93
2023-05-01T11:55:47.723Z,42.73
2023-05-01T11:58:16.332Z,44.30
2023-05-01T12:00:45.330Z,42.87
2023-05-01T12:03:15.527Z,41.58
2023-05-01T12:05:46.064Z,41.04
2023-05-01T12:08:23.656Z,41.02
2023-05-01T12:10:58.020Z,41.95
2023-05-01T12:13:27.732Z,42.33
2023-05-01T12:15:57.593Z,41.92
2023-05-01T12:18:26.540Z,41.40
2023-05-01T12:20:55.893Z,39.87
2023-05-01T12:23:33.283Z,40.77
2023-05-01T12:26:03.748Z,39.74
2023-05-01T12:28:32.675Z,41.31
2023-05-01T12:31:05.517Z,41.49
2023-05-01T12:33:34.570Z,40.75
2023-05-01T12:36:11.998Z,40.08
2023-05-01T12:38:40.750Z,39.61
2023-05-01T12:41:12.489Z,39.60
2023-05-01T12:43:42.413Z,41.42
2023-05-01T12:46:15.251Z,41.20
2023-05-01T12:48:43.882Z,41.24
2023-05-01T12:51:21.782Z,40.52
2023-05-01T12:53:52.086Z,41.22
2023-05-01T12:56:26.336Z,42.13
2023-05-01T12:58:56.031Z,43.46
2023-05-01T13:01:29.297Z,42.56
2023-05-01T13:03:59.471Z,42.39
2023-05-01T13:06:34.282Z,42.77
2023-05-01T13:09:10.652Z,41.22
2023-05-01T13:11:39.435Z,40.63
2023-05-01T13:14:12.820Z,40.33
2023-05-01T13:16:47.015Z,40.81
2023-05-01T13:19:27.161Z,40.36
2023-05-01T13:21:59.031Z,40.33
2023-05-01T13:24:46.585Z,41.30
2023-05-01T13:27:15.395Z,42.55
2023-05-01T13:29:53.319Z,42.74
2023-05-01T13:32:21.949Z,40.12
2023-05-01T13:34:51.267Z,40.39
2023-05-01T13:37:21.595Z,40.46
2023-05-01T13:39:50.429Z,39.97
2023-05-01T13:42:24.434Z,39.99
2023-05-01T13:44:57.250Z,40.87
2023-05-01T13:47:27.236Z,40.95
2023-05-01T13:49:56.441Z,40.77
2023-05-01T13:52:25.357Z,40.02
2023-05-01T13:54:56.878Z,40.47
2023-05-01T13:57:25.814Z,40.38
2023-05-01T13:59:54.584Z,40.77
2023-05-01T14:02:30.171Z,39.14
2023-05-01T14:05:00.790Z,39.24
2023-05-01T14:07:30.068Z,38.72
2023-05-01T14:10:00.381Z,38.26
2023-05-01T14:12:31.021Z,38.48
2023-05-01T14:15:01.859Z,38.96
2023-05-01T14:17:33.168Z,38.93
2023-05-01T14:20:02.912Z,38.96
2023-05-01T14:22:44.020Z,39.29
2023-05-01T14:25:23.530Z,39.30
2023-05-01T14:27:53.864Z,39.61
2023-05-01T14:30:30.312Z,39.40
2023-05-01T14:32:58.841Z,39.69
2023-05-01T14:35:28.110Z,39.32
2023-05-01T14:37:58.029Z,40.05
2023-05-01T14:40:28.090Z,40.33
2023-05-01T14:42:58.391Z,40.43
2023-05-01T14:45:27.553Z,40.12
2023-05-01T14:47:56.373Z,39.87
2023-05-01T14:50:28.467Z,40.32
2023-05-01T14:52:59.328Z,40.18
2023-05-01T14:55:34.974Z,39.68
2023-05-01T14:58:04.100Z,39.38
2023-05-01T15:00:32.829Z,40.11
2023-05-01T15:03:02.083Z,40.04
2023-05-01T15:05:31.724Z,40.40
2023-05-01T15:08:04.684Z,40.22
2023-05-01T15:10:34.505Z,40.37
2023-05-01T15:13:03.288Z,40.14
2023-05-01T15:15:32.102Z,40.01
2023-05-01T15:18:00.995Z,40.61
2023-05-01T15:20:30.477Z,40.61
2023-05-01T15:22:59.068Z,40.02
2023-05-01T15:25:27.842Z,39.81
2023-05-01T15:27:57.694Z,40.10
2023-05-01T15:30:26.236Z,40.37
2023-05-01T15:32:56.467Z,40.56
2023-05-01T15:35:26.604Z,40.74
2023-05-01T15:37:57.236Z,41.02
2023-05-01T15:40:25.807Z,40.86
2023-05-01T15:42:54.904Z,41.32
2023-05-01T15:45:23.865Z,41.39
2023-05-01T15:47:52.608Z,41.47
2023-05-01T15:50:22.176Z,41.65
2023-05-01T15:52:53.116Z,41.85
2023-05-01T15:55:22.437Z,42.28
2023-05-01T15:57:51.536Z,42.61
2023-05-01T16:00:22.182Z,42.87
2023-05-01T16:02:51.137Z,42.89
2023-05-01T16:05:23.613Z,42.82
2023-05-01T16:07:55.677Z,43.07
2023-05-01T16:10:25.996Z,43.74
2023-05-01T16:12:54.802Z,44.01
2023-05-01T16:15:23.777Z,44.04
2023-05-01T16:17:55.248Z,44.85
2023-05-01T16:20:24.437Z,46.00
2023-05-01T16:22:53.207Z,45.46
2023-05-01T16:25:22.505Z,45.11
2023-05-01T16:27:52.528Z,45.36
2023-05-01T16:30:25.555Z,45.81
2023-05-01T16:32:54.468Z,46.27
2023-05-01T16:35:27.936Z,46.77
2023-05-01T16:37:57.008Z,47.38
2023-05-01T16:40:25.883Z,47.99
2023-05-01T16:42:55.084Z,48.70
2023-05-01T16:45:23.747Z,48.84
2023-05-01T16:47:52.390Z,49.37
2023-05-01T16:50:23.090Z,49.55
2023-05-01T16:52:55.346Z,49.62
2023-05-01T16:55:25.330Z,49.79
2023-05-01T16:57:54.794Z,49.72
2023-05-01T17:00:23.997Z,49.64
2023-05-01T17:02:55.424Z,49.70
2023-05-01T17:05:24.223Z,50.02
2023-05-01T17:07:53.315Z,50.43
2023-05-01T17:10:22.405Z,50.92
2023-05-01T17:12:51.624Z,51.26
2023-05-01T17:15:20.803Z,51.70
2023-05-01T17:17:49.920Z,52.13
2023-05-01T17:20:19.999Z,52.57
2023-05-01T17:22:49.102Z,52.89
2023-05-01T17:25:18.233Z,53.34
2023-05-01T17:27:46.767Z,53.88
2023-05-01T17:30:16.174Z,54.47
2023-05-01T17:32:45.383Z,55.02
2023-05-01T17:35:17.759Z,55.23
2023-05-01T17:37:46.752Z,55.90
2023-05-01T17:40:16.887Z,56.27
2023-05-01T17:42:46.161Z,56.65
2023-05-01T17:45:15.780Z,57.18
2023-05-01T17:47:47.624Z,57.29
2023-05-01T17:50:16.541Z,57.83
2023-05-01T17:52:46.631Z,58.24
2023-05-01T17:55:18.203Z,58.60
2023-05-01T17:57:48.114Z,59.13
2023-05-01T18:00:18.581Z,59.59
2023-05-01T18:02:49.558Z,60.02
2023-05-01T18:05:18.807Z,60.51
2023-05-01T18:07:49.105Z,60.91
2023-05-01T18:10:18.448Z,61.24
2023-05-01T18:12:51.728Z,61.70
2023-05-01T18:15:22.986Z,62.26
2023-05-01T18:17:53.235Z,62.86
2023-05-01T18:20:24.118Z,63.29
2023-05-01T18:22:54.778Z,63.73
2023-05-01T18:25:24.796Z,64.08
2023-05-01T18:27:56.746Z,64.67
2023-05-01T18:30:30.945Z,65.11
2023-05-01T18:33:01.303Z,65.31
2023-05-01T18:35:33.716Z,65.71
2023-05-01T18:38:03.140Z,66.23
2023-05-01T18:40:33.345Z,66.52
2023-05-01T18:43:05.616Z,66.85
2023-05-01T18:45:35.839Z,67.11
2023-05-01T18:48:07.021Z,67.37
2023-05-01T18:50:38.784Z,67.47
2023-05-01T18:53:09.665Z,67.44
2023-05-01T18:55:39.229Z,67.14
2023-05-01T18:58:09.396Z,66.96
2023-05-01T19:00:40.767Z,66.99
2023-05-01T19:03:15.478Z,67.05
2023-05-01T19:05:46.200Z,67.15
2023-05-01T19:08:16.985Z,67.22
2023-05-01T19:10:47.051Z,67.32
2023-05-01T19:13:18.520Z,67.34
2023-05-01T19:15:48.959Z,67.59
2023-05-01T19:18:18.557Z,67.70
2023-05-01T19:20:48.699Z,67.92
2023-05-01T19:23:23.056Z,68.04
2023-05-01T19:26:01.605Z,68.06
2023-05-01T19:28:38.460Z,67.93
2023-05-01T19:31:14.567Z,67.75
2023-05-01T19:33:54.279Z,67.49
2023-05-01T19:36:29.744Z,67.37
2023-05-01T19:39:08.186Z,67.49
2023-05-01T19:41:42.212Z,67.23
2023-05-01T19:44:19.086Z,67.18
2023-05-01T19:46:53.442Z,67.21
2023-05-01T19:49:27.482Z,67.17
2023-05-01T19:52:04.673Z,67.71
2023-05-01T19:54:45.918Z,68.29
2023-05-01T19:57:19.457Z,68.61
2023-05-01T19:59:50.809Z,69.67
2023-05-01T20:02:24.488Z,69.96
2023-05-01T20:04:58.219Z,70.48
2023-05-01T20:07:34.620Z,71.05
2023-05-01T20:10:09.286Z,71.54
2023-05-01T20:12:41.660Z,71.79
2023-05-01T20:15:12.398Z,72.33
2023-05-01T20:17:42.620Z,72.50
2023-05-01T20:20:11.817Z,72.40
2023-05-01T20:22:41.097Z,72.66
2023-05-01T20:25:11.108Z,72.58
2023-05-01T20:27:41.122Z,72.70
2023-05-01T20:30:12.068Z,72.85
2023-05-01T20:32:44.976Z,73.00
2023-05-01T20:35:14.698Z,73.14
2023-05-01T20:37:43.648Z,73.07
2023-05-01T20:40:13.377Z,73.18
2023-05-01T20:42:43.586Z,73.17
2023-05-01T20:45:13.089Z,73.27
2023-05-01T20:47:42.033Z,73.34
2023-05-01T20:50:11.687Z,73.41
2023-05-01T20:52:40.823Z,73.43
2023-05-01T20:55:10.193Z,73.58
2023-05-01T20:57:40.636Z,73.77
2023-05-01T21:00:09.940Z,73.85
2023-05-01T21:02:39.631Z,74.11
2023-05-01T21:05:12.540Z,73.89
2023-05-01T21:07:41.615Z,73.79
2023-05-01T21:10:11.292Z,73.84
2023-05-01T21:12:45.220Z,73.71
2023-05-01T21:15:15.340Z,73.76
2023-05-01T21:17:44.211Z,73.79
2023-05-01T21:20:17.136Z,74.06
2023-05-01T21:22:46.602Z,74.35
2023-05-01T21:25:20.199Z,74.31
2023-05-01T21:27:48.682Z,74.22
2023-05-01T21:30:37.750Z,74.27
2023-05-01T21:33:08.929Z,74.37
2023-05-01T21:35:42.287Z,74.29
2023-05-01T21:38:11.522Z,74.39
2023-05-01T21:40:43.749Z,74.48
2023-05-01T21:43:15.523Z,74.28
2023-05-01T21:45:50.307Z,74.44
2023-05-01T21:48:20.212Z,74.57
2023-05-01T21:50:50.444Z,74.63
2023-05-01T21:53:20.134Z,74.83
2023-05-01T21:55:49.301Z,74.95
2023-05-01T21:58:18.192Z,75.28
2023-05-01T22:00:47.225Z,75.48
2023-05-01T22:03:18.464Z,75.59
2023-05-01T22:05:47.211Z,75.82
2023-05-01T22:08:15.907Z,76.07
2023-05-01T22:10:45.792Z,76.36
2023-05-01T22:13:14.425Z,76.53
2023-05-01T22:15:43.281Z,76.74
2023-05-01T22:18:18.394Z,77.11
2023-05-01T22:20:52.676Z,77.45
2023-05-01T22:23:27.918Z,77.59
2023-05-01T22:26:01.052Z,77.77
2023-05-01T22:28:34.526Z,77.86
2023-05-01T22:31:07.498Z,77.98
2023-05-01T22:33:38.094Z,78.17
2023-05-01T22:36:07.576Z,78.17
2023-05-01T22:38:36.870Z,78.38
2023-05-01T22:41:06.477Z,78.70
2023-05-01T22:43:35.188Z,78.88
2023-05-01T22:46:06.265Z,78.94
2023-05-01T22:48:35.220Z,79.07
2023-05-01T22:51:04.408Z,79.13
2023-05-01T22:53:33.219Z,79.30
2023-05-01T22:56:02.091Z,79.29
2023-05-01T22:58:30.895Z,79.25
2023-05-01T23:00:59.879Z,79.23
2023-05-01T23:03:34.574Z,79.38
2023-05-01T23:06:08.099Z,79.57
2023-05-01T23:08:42.356Z,79.75
2023-05-01T23:11:22.142Z,79.89
2023-05-01T23:13:56.693Z,79.72
2023-05-01T23:16:28.294Z,79.77
2023-05-01T23:19:01.368Z,80.06
2023-05-01T23:21:34.043Z,80.39
2023-05-01T23:24:06.637Z,80.73
2023-05-01T23:26:42.540Z,81.08
2023-05-01T23:29:18.308Z,81.25
2023-05-01T23:31:50.266Z,81.60
2023-05-01T23:34:20.239Z,82.03
2023-05-01T23:36:49.083Z,82.24
2023-05-01T23:39:18.538Z,82.52
2023-05-01T23:41:47.648Z,82.43
2023-05-01T23:44:16.731Z,82.34
2023-05-01T23:46:45.556Z,82.34
2023-05-01T23:49:14.425Z,82.35
2023-05-01T23:51:45.564Z,82.36
2023-05-01T23:54:14.243Z,82.37
2023-05-01T23:56:43.343Z,82.39
2023-05-01T23:59:12.543Z,82.24
